LFRD

Dinard-Pleurtuit-Saint-Malo Airport

Airport
ICAO code
LFRD
IATA Code
DNR
Summary
ICAO Region
EUR
ICAO Territory
Location

, Bretagne

Serving
Dinard
Elevation
219 ft
Coordinates
48° 35' 16" N , 2° 4' 48" W
Metar
Observation
LFRD 091830Z AUTO 20004KT 5000 BR BKN034 BKN045 BKN054 M01/M01 Q1008 TEMPO SHRASN VV///
Station
Dinard
Date/Time
2022-12-09 18:30:00
Wind direction
200°
Wind speed
04 kts
Lowest cloud amount
broken clouds
Temperature
-1°C
Dew point
-1°C
Humidity
100%
QNH
1008 hPa
Weather condition
n/a

Runways

Designator Length Width Surface Rops
12/30 1435 45 ASP Yes/Yes
17/35 2200 45 ASP Yes/Yes

Airport map

Aerial View

SKYbrary Partners:

Safety knowledge contributed by: